Time;durP1;ratioP1;P1;durP2;ratioP2;P2;SDS_P1;SDS_P2;PMS_P1;PMS_P2;Temp;Humidity;BMP_temperature;BMP_pressure;BME280_temperature;BME280_humidity;BME280_pressure;Samples;Min_cycle;Max_cycle;Signal;HPM_P1;HPM_P2
2023/04/19 00:02:10;;;;;;;14.30;10.20;;;;;;;9.47;84.99;101272.42;105173;1260;73263;-50
2023/04/19 00:05:28;;;;;;;12.20;8.90;;;;;;;9.43;84.80;101271.29;105258;1255;69911;-50
2023/04/19 00:08:32;;;;;;;11.60;7.90;;;;;;;9.41;84.86;101269.59;105035;1256;69874;-50
2023/04/19 00:11:23;;;;;;;12.00;8.60;;;;;;;9.40;84.59;101269.61;105275;1256;75032;-50
2023/04/19 00:14:27;;;;;;;14.10;8.90;;;;;;;9.37;84.62;101263.70;105259;1258;82485;-52
2023/04/19 00:17:26;;;;;;;13.00;9.80;;;;;;;9.35;84.61;101265.31;105250;1260;72899;-53
2023/04/19 00:21:06;;;;;;;;;;;;;;;;;;;;;
2023/04/19 00:24:02;;;;;;;11.00;8.90;;;;;;;9.27;84.12;101253.45;105087;1259;70002;-54
2023/04/19 00:26:56;;;;;;;;;;;;;;;9.22;83.79;101252.30;105102;1257;74871;-50
2023/04/19 00:30:06;;;;;;;9.40;7.30;;;;;;;9.19;83.15;101246.61;105039;1257;83468;-56
2023/04/19 00:33:11;;;;;;;10.20;8.30;;;;;;;9.15;82.79;101247.88;104972;1258;73868;-54
2023/04/19 00:36:25;;;;;;;13.40;9.30;;;;;;;9.12;82.74;101243.41;105164;1259;69165;-52
2023/04/19 00:39:40;;;;;;;12.70;9.20;;;;;;;9.09;82.65;101242.39;105273;1258;69916;-52
2023/04/19 00:43:06;;;;;;;13.40;9.20;;;;;;;9.07;82.69;101244.36;105138;1257;73046;-51
2023/04/19 00:46:00;;;;;;;14.10;9.40;;;;;;;9.04;82.75;101236.40;105230;1258;84013;-56
2023/04/19 00:49:32;;;;;;;13.00;9.00;;;;;;;9.02;82.97;101237.48;105104;1257;73794;-55
2023/04/19 00:52:55;;;;;;;17.20;9.90;;;;;;;8.99;83.04;101234.91;105318;1260;69225;-51
2023/04/19 00:55:55;;;;;;;13.60;9.70;;;;;;;8.98;83.29;101232.50;105227;1257;70178;-51
2023/04/19 00:59:07;;;;;;;12.90;9.00;;;;;;;8.94;83.13;101231.16;105053;1257;75126;-53
2023/04/19 01:02:02;;;;;;;15.00;9.70;;;;;;;8.91;83.38;101227.55;105203;1260;83232;-49
2023/04/19 01:05:22;;;;;;;;;;;;;;;;;;;;;
2023/04/19 01:08:42;;;;;;;;;;;;;;;;;;;;;
2023/04/19 01:12:00;;;;;;;12.60;9.60;;;;;;;8.82;83.39;101212.88;105276;1255;69817;-53
2023/04/19 01:15:05;;;;;;;13.00;9.70;;;;;;;8.75;82.78;101212.14;105115;1260;74937;-53
2023/04/19 01:18:14;;;;;;;13.10;8.70;;;;;;;8.71;82.83;101212.38;105239;1260;83405;-53
2023/04/19 01:22:05;;;;;;;12.40;9.10;;;;;;;8.64;82.27;101207.24;105260;1258;73796;-55
2023/04/19 01:25:18;;;;;;;13.10;8.90;;;;;;;8.59;82.08;101205.95;105247;1258;69136;-52
2023/04/19 01:28:19;;;;;;;14.70;9.20;;;;;;;8.52;81.75;101202.74;105202;1259;69222;-54
2023/04/19 01:31:27;;;;;;;13.50;8.10;;;;;;;8.47;81.31;101201.08;105253;1258;74608;-52
2023/04/19 01:34:40;;;;;;;12.40;8.20;;;;;;;8.42;81.07;101201.85;105257;1257;83389;-51
2023/04/19 01:37:59;;;;;;;;;;;;;;;;;;;;;
2023/04/19 01:41:20;;;;;;;12.00;8.10;;;;;;;8.34;80.61;101196.21;105224;1257;69756;-51
2023/04/19 01:44:50;;;;;;;;;;;;;;;;;;;;;
2023/04/19 01:48:00;;;;;;;;;;;;;;;;;;;;;
2023/04/19 01:51:20;;;;;;;12.40;8.00;;;;;;;8.22;80.60;101182.45;105168;1258;81166;-53
2023/04/19 01:54:35;;;;;;;12.80;8.70;;;;;;;8.18;80.59;101173.80;105275;1260;73755;-54
2023/04/19 01:57:56;;;;;;;;;;;;;;;;;;;;;
2023/04/19 02:01:13;;;;;;;13.00;8.30;;;;;;;8.14;80.87;101170.02;105120;1255;69192;-52
2023/04/19 02:04:48;;;;;;;;;;;;;;;;;;;;;
2023/04/19 02:08:21;;;;;;;16.40;8.60;;;;;;;8.08;81.34;101177.94;105271;1259;83570;-52
2023/04/19 02:11:36;;;;;;;12.40;7.40;;;;;;;8.06;81.41;101176.75;105256;1257;73715;-53
2023/04/19 02:15:10;;;;;;;12.30;7.50;;;;;;;8.03;81.21;101174.02;105127;1257;69204;-51
2023/04/19 02:18:27;;;;;;;;;;;;;;;;;;;;;
2023/04/19 02:21:57;;;;;;;;;;;;;;;;;;;;;
2023/04/19 02:25:24;;;;;;;10.70;6.60;;;;;;;7.85;80.51;101166.95;105175;1260;83851;-52
2023/04/19 02:29:07;;;;;;;8.30;6.00;;;;;;;7.78;80.01;101166.52;105082;1260;72724;-54
2023/04/19 02:32:32;;;;;;;11.50;6.20;;;;;;;7.72;79.73;101158.42;105421;1256;69160;-53
2023/04/19 02:36:11;;;;;;;;;;;;;;;;;;;;;
2023/04/19 02:39:41;;;;;;;;;;;;;;;;;;;;;
2023/04/19 02:43:04;;;;;;;7.20;4.80;;;;;;;7.56;78.67;101152.38;105062;1261;83539;-50
2023/04/19 02:46:21;;;;;;;6.40;4.70;;;;;;;7.49;78.14;101157.33;105157;1265;73727;-49
2023/04/19 02:49:36;;;;;;;;;;;;;;;;;;;;;
2023/04/19 02:56:42;;;;;;;7.50;4.20;;;;;;;7.28;77.35;101146.98;105198;1260;74923;-51
2023/04/19 03:00:04;;;;;;;;;;;;;;;;;;;;;
2023/04/19 03:03:25;;;;;;;;;;;;;;;7.18;76.85;101142.91;105241;1257;73958;-53
2023/04/19 03:07:12;;;;;;;7.80;3.80;;;;;;;7.11;76.47;101141.23;105137;1255;69779;-53
2023/04/19 03:10:53;;;;;;;;;;;;;;;;;;;;;
2023/04/19 03:14:04;;;;;;;8.20;3.70;;;;;;;6.95;75.72;101137.41;105230;1260;74367;-52
2023/04/19 03:17:18;;;;;;;5.70;3.60;;;;;;;6.89;75.70;101134.36;105074;1260;84503;-55
2023/04/19 03:20:34;;;;;;;7.40;3.70;;;;;;;6.85;75.36;101129.36;105054;1261;73132;-50
2023/04/19 03:27:50;;;;;;;7.50;3.60;;;;;;;6.74;75.30;101125.64;105029;1257;69887;-59
2023/04/19 03:31:10;;;;;;;6.70;3.70;;;;;;;6.71;75.62;101126.19;105029;1257;75409;-52
2023/04/19 03:34:35;;;;;;;;;;;;;;;;;;;;;
2023/04/19 03:38:16;;;;;;;5.50;3.20;;;;;;;6.72;75.11;101127.76;105119;1256;72717;-54
2023/04/19 03:41:48;;;;;;;7.70;3.50;;;;;;;6.64;74.93;101120.00;105263;1255;69277;-56
2023/04/19 03:45:11;;;;;;;7.70;4.00;;;;;;;6.56;74.65;101119.56;105194;1257;69207;-54
2023/04/19 03:48:25;;;;;;;;;;;;;;;6.45;74.75;101124.69;104925;1259;73027;-52
2023/04/19 03:51:52;;;;;;;;;;;;;;;;;;;;;
2023/04/19 03:55:11;;;;;;;7.20;3.50;;;;;;;6.14;73.98;101120.95;105138;1255;73809;-51
2023/04/19 03:58:43;;;;;;;5.30;3.30;;;;;;;5.94;73.58;101120.73;105084;1256;69812;-54
2023/04/19 04:02:23;;;;;;;7.00;3.00;;;;;;;5.76;73.66;101118.21;105436;1257;69180;-54
2023/04/19 04:05:50;;;;;;;6.20;3.30;;;;;;;5.60;73.62;101116.90;105269;1255;74852;-53
2023/04/19 04:09:34;;;;;;;6.90;4.10;;;;;;;5.45;73.68;101115.25;104939;1261;83592;-54
2023/04/19 04:13:24;;;;;;;9.60;3.40;;;;;;;5.29;73.67;101115.48;105001;1260;73784;-53
2023/04/19 04:16:55;;;;;;;4.30;2.70;;;;;;;5.14;73.74;101112.76;104963;1260;69198;-53
2023/04/19 04:20:18;;;;;;;6.90;3.50;;;;;;;5.03;73.70;101112.63;104994;1259;69840;-52
2023/04/19 04:23:44;;;;;;;8.60;3.20;;;;;;;4.96;73.71;101114.91;105048;1256;74127;-53
2023/04/19 04:27:20;;;;;;;;;;;;;;;;;;;;;
2023/04/19 04:30:44;;;;;;;;;;;;;;;4.84;73.98;101119.95;104990;1256;73930;-51
2023/04/19 04:33:52;;;;;;;4.60;3.00;;;;;;;4.78;73.98;101122.38;105271;1256;70076;-51
2023/04/19 04:36:49;;;;;;;6.10;3.10;;;;;;;4.72;73.92;101123.42;105265;1256;70247;-50
2023/04/19 04:39:52;;;;;;;7.00;3.60;;;;;;;4.67;74.31;101122.91;105222;1260;74835;-54
2023/04/19 04:42:39;;;;;;;10.90;4.30;;;;;;;4.63;74.24;101121.70;105150;1261;83567;-49
2023/04/19 04:45:32;;;;;;;;;;;;;;;;;;;;;
2023/04/19 04:48:23;;;;;;;;;;;;;;;;;;;;;
2023/04/19 04:51:10;;;;;;;8.80;3.80;;;;;;;4.54;74.47;101124.84;105368;1256;69936;-49
2023/04/19 04:54:16;;;;;;;5.90;3.50;;;;;;;4.51;74.50;101127.95;105402;1257;74975;-49
2023/04/19 04:57:20;;;;;;;6.30;3.00;;;;;;;4.44;74.55;101125.02;105256;1259;83605;-47
2023/04/19 05:00:28;;;;;;;;;;;;;;;4.41;74.65;101119.30;105164;1260;72652;-48
2023/04/19 05:03:49;;;;;;;7.40;3.80;;;;;;;4.34;74.75;101117.39;105314;1256;69921;-49
2023/04/19 05:06:56;;;;;;;8.10;3.50;;;;;;;4.29;74.81;101119.30;105268;1260;70001;-47
2023/04/19 05:10:16;;;;;;;;;;;;;;;4.24;75.07;101122.94;105002;1260;75360;-47
2023/04/19 05:13:16;;;;;;;6.30;2.80;;;;;;;4.20;74.87;101122.23;104660;1267;83416;-49
2023/04/19 05:15:57;;;;;;;6.80;3.00;;;;;;;4.16;75.08;101119.29;104668;1264;73722;-47
2023/04/19 05:19:16;;;;;;;7.50;3.40;;;;;;;4.13;75.27;101118.94;104661;1267;70187;-47
2023/04/19 05:21:58;;;;;;;5.30;3.20;;;;;;;4.14;75.59;101116.70;104690;1267;69991;-49
2023/04/19 05:24:49;;;;;;;8.10;3.30;;;;;;;4.13;75.53;101111.16;104663;1264;73972;-48
2023/04/19 05:27:40;;;;;;;;;;;;;;;;;;;;;
2023/04/19 05:31:00;;;;;;;7.90;3.40;;;;;;;4.08;75.59;101105.27;104645;1264;73782;-49
2023/04/19 05:34:00;;;;;;;8.60;3.00;;;;;;;4.07;75.86;101106.48;104513;1267;70241;-48
2023/04/19 05:37:04;;;;;;;7.60;3.00;;;;;;;4.10;75.71;101107.88;104635;1268;70029;-51
2023/04/19 05:40:14;;;;;;;;;;;;;;;;;;;;;
2023/04/19 05:43:26;;;;;;;7.00;3.50;;;;;;;4.20;76.38;101106.16;104771;1260;83423;-51
2023/04/19 05:46:39;;;;;;;13.00;5.20;;;;;;;4.29;76.31;101100.10;105419;1255;73987;-48
2023/04/19 05:49:42;;;;;;;14.20;4.70;;;;;;;4.30;76.21;101104.08;105621;1256;69945;-48
2023/04/19 05:52:57;;;;;;;14.90;6.30;;;;;;;4.33;76.42;101104.25;105265;1255;70067;-51
2023/04/19 05:55:36;;;;;;;9.70;4.70;;;;;;;4.38;76.48;101104.23;105227;1259;74400;-50
2023/04/19 05:58:55;;;;;;;;;;;;;;;;;;;;;
2023/04/19 06:02:03;;;;;;;;;;;;;;;;;;;;;
2023/04/19 06:05:02;;;;;;;;;;;;;;;;;;;;;
2023/04/19 06:08:12;;;;;;;7.60;4.10;;;;;;;4.73;76.39;101100.75;105974;1256;70014;-48
2023/04/19 06:11:01;;;;;;;;;;;;;;;;;;;;;
2023/04/19 06:14:12;;;;;;;5.90;3.90;;;;;;;4.95;76.01;101101.73;105600;1255;82869;-50
2023/04/19 06:16:53;;;;;;;10.10;4.50;;;;;;;5.03;76.12;101101.90;105514;1256;73808;-49
2023/04/19 06:20:06;;;;;;;9.90;5.20;;;;;;;5.13;76.32;101102.55;105194;1255;70009;-49
2023/04/19 06:22:56;;;;;;;9.80;4.90;;;;;;;5.27;76.53;101097.65;105197;1259;70652;-48
2023/04/19 06:25:53;;;;;;;8.20;4.10;;;;;;;5.33;76.22;101097.62;105238;1256;73970;-48
2023/04/19 06:29:10;;;;;;;;;;;;;;;;;;;;;
2023/04/19 06:31:57;;;;;;;;;;;;;;;;;;;;;
2023/04/19 06:34:57;;;;;;;11.10;4.90;;;;;;;5.30;75.73;101103.01;105151;1256;69829;-51
2023/04/19 06:38:22;;;;;;;12.00;4.60;;;;;;;5.34;76.02;101105.94;105292;1255;69982;-49
2023/04/19 06:41:27;;;;;;;8.50;4.60;;;;;;;5.40;75.82;101101.76;105198;1260;74037;-49
2023/04/19 06:44:24;;;;;;;6.50;4.40;;;;;;;5.47;76.48;101103.46;105211;1255;83609;-49
2023/04/19 06:47:33;;;;;;;6.60;4.40;;;;;;;5.55;76.42;101098.55;105342;1256;73748;-46
2023/04/19 06:50:47;;;;;;;;;;;;;;;;;;;;;
2023/04/19 06:53:42;;;;;;;7.60;4.70;;;;;;;5.71;75.76;101094.83;105270;1255;69926;-50
2023/04/19 06:57:08;;;;;;;8.00;4.50;;;;;;;5.76;75.87;101095.31;105306;1260;74995;-50
2023/04/19 06:59:47;;;;;;;8.10;4.50;;;;;;;5.91;76.01;101095.92;105165;1260;84578;-49
2023/04/19 07:02:31;;;;;;;9.40;5.30;;;;;;;6.10;76.01;101093.73;105244;1258;73851;-48
2023/04/19 07:05:11;;;;;;;8.10;4.70;;;;;;;6.20;76.01;101093.14;105270;1255;70012;-53
2023/04/19 07:07:57;;;;;;;7.60;5.30;;;;;;;6.25;75.35;101092.91;105196;1256;70005;-50
2023/04/19 07:11:03;;;;;;;;;;;;;;;;;;;;;
2023/04/19 07:14:35;;;;;;;8.10;5.10;;;;;;;6.38;75.61;101090.55;105224;1260;83430;-53
2023/04/19 07:18:01;;;;;;;;;;;;;;;;;;;;;
2023/04/19 07:21:12;;;;;;;;;;;;;;;;;;;;;
2023/04/19 07:24:29;;;;;;;12.00;5.70;;;;;;;6.56;75.20;101080.83;105250;1260;69206;-53
2023/04/19 07:31:01;;;;;;;21.10;6.40;;;;;;;6.63;74.60;101062.36;105486;1255;82548;-56
2023/04/19 07:34:22;;;;;;;;;;;;;;;;;;;;;
2023/04/19 07:37:53;;;;;;;;;;;;;;;;;;;;;
2023/04/19 07:41:04;;;;;;;11.50;5.40;;;;;;;6.72;74.60;101081.03;105159;1256;69136;-50
2023/04/19 07:44:10;;;;;;;9.00;5.80;;;;;;;6.71;74.27;101081.73;105314;1259;74021;-57
2023/04/19 07:47:36;;;;;;;10.40;6.50;;;;;;;6.74;74.56;101079.10;105188;1253;83428;-51
2023/04/19 07:50:51;;;;;;;12.70;6.20;;;;;;;6.85;74.51;101074.29;105346;1257;72601;-51
2023/04/19 07:54:23;;;;;;;;;;;;;;;;;;;;;
2023/04/19 07:57:44;;;;;;;;;;;;;;;7.12;74.74;101065.80;105178;1260;69995;-55
2023/04/19 08:00:39;;;;;;;;;;;;;;;7.24;74.53;101064.61;105198;1255;74952;-55
2023/04/19 08:04:07;;;;;;;12.50;5.70;;;;;;;7.30;74.22;101068.71;105103;1261;82429;-53
2023/04/19 08:07:03;;;;;;;8.90;5.20;;;;;;;7.29;73.53;101072.20;105430;1255;73641;-51
2023/04/19 08:10:16;;;;;;;11.60;5.90;;;;;;;7.24;73.81;101072.44;105138;1256;69180;-55
2023/04/19 08:13:31;;;;;;;10.80;6.20;;;;;;;7.20;73.75;101067.98;105201;1260;69229;-52
2023/04/19 08:20:09;;;;;;;10.10;6.50;;;;;;;7.08;73.38;101071.77;105189;1260;83490;-57
2023/04/19 08:23:29;;;;;;;13.70;7.20;;;;;;;7.09;73.52;101073.31;105086;1255;73907;-54
2023/04/19 08:27:12;;;;;;;12.10;7.40;;;;;;;7.06;73.90;101070.58;105208;1255;69217;-54
2023/04/19 08:30:18;;;;;;;10.10;6.60;;;;;;;7.01;73.52;101068.73;105070;1260;69219;-54
2023/04/19 08:33:39;;;;;;;;;;;;;;;;;;;;;
2023/04/19 08:37:01;;;;;;;;;;;;;;;;;;;;;
2023/04/19 08:40:33;;;;;;;8.60;5.80;;;;;;;6.88;73.75;101063.30;105225;1260;72866;-51
2023/04/19 08:44:02;;;;;;;;;;;;;;;;;;;;;
2023/04/19 08:47:15;;;;;;;16.20;10.70;;;;;;;6.72;73.80;101060.53;105061;1260;69204;-54
2023/04/19 08:51:08;;;;;;;14.60;8.90;;;;;;;6.71;74.08;101060.37;105124;1256;74156;-56
2023/04/19 08:54:30;;;;;;;14.10;7.40;;;;;;;6.70;74.36;101059.52;105111;1260;83351;-54
2023/04/19 08:58:00;;;;;;;11.30;7.20;;;;;;;6.63;74.31;101062.18;105080;1260;72756;-52
2023/04/19 09:01:31;;;;;;;16.90;8.90;;;;;;;6.57;74.53;101057.23;105102;1255;69766;-54
2023/04/19 09:05:14;;;;;;;11.80;8.40;;;;;;;6.48;75.08;101057.64;105116;1259;69344;-51
2023/04/19 09:08:57;;;;;;;14.20;8.70;;;;;;;6.37;75.91;101052.55;105080;1258;75320;-51
2023/04/19 09:12:30;;;;;;;;;;;;;;;;;;;;;
2023/04/19 09:15:58;;;;;;;;;;;;;;;;;;;;;
2023/04/19 09:19:36;;;;;;;20.70;10.50;;;;;;;6.24;77.05;101045.89;105414;1257;71174;-50
2023/04/19 09:23:25;;;;;;;19.10;11.70;;;;;;;6.15;77.22;101043.02;105137;1257;69245;-51
2023/04/19 09:27:02;;;;;;;;;;;;;;;;;;;;;
2023/04/19 09:30:43;;;;;;;10.90;7.90;;;;;;;5.98;77.66;101038.82;105046;1260;82852;-50
2023/04/19 09:34:29;;;;;;;;;;;;;;;;;;;;;
2023/04/19 09:38:20;;;;;;;10.70;7.40;;;;;;;5.94;78.74;101030.54;105399;1253;69788;-50
2023/04/19 09:41:51;;;;;;;11.80;6.70;;;;;;;5.91;78.79;101033.46;105096;1254;69871;-53
2023/04/19 09:45:42;;;;;;;13.80;8.40;;;;;;;5.93;79.31;101034.67;105205;1258;73430;-55
2023/04/19 09:49:29;;;;;;;14.50;9.00;;;;;;;5.97;79.54;101032.95;105253;1253;83215;-54
2023/04/19 09:53:28;;;;;;;;;;;;;;;;;;;;;
2023/04/19 09:57:18;;;;;;;10.60;7.20;;;;;;;5.95;80.66;101036.77;105240;1253;69274;-49
2023/04/19 10:00:53;;;;;;;;;;;;;;;;;;;;;
2023/04/19 10:05:03;;;;;;;9.50;7.80;;;;;;;5.95;80.94;101032.42;104893;1254;74787;-50
2023/04/19 10:09:03;;;;;;;12.50;6.20;;;;;;;6.02;81.07;101026.13;104973;1254;83840;-54
2023/04/19 10:12:44;;;;;;;10.00;5.80;;;;;;;6.08;80.80;101019.66;105130;1257;73697;-54
2023/04/19 10:16:52;;;;;;;10.00;5.50;;;;;;;6.21;81.36;101012.77;105187;1257;69126;-53
2023/04/19 10:20:44;;;;;;;12.20;6.80;;;;;;;6.38;81.77;101005.49;105202;1253;69198;-51
2023/04/19 10:24:27;;;;;;;;;;;;;;;;;;;;;
2023/04/19 10:28:18;;;;;;;11.00;7.10;;;;;;;6.65;81.10;100990.45;105084;1253;84385;-55
2023/04/19 10:35:51;;;;;;;8.10;5.30;;;;;;;7.15;81.73;100992.45;104933;1262;69927;-51
2023/04/19 10:39:40;;;;;;;14.10;7.60;;;;;;;7.09;81.67;100991.11;104890;1260;69762;-53
2023/04/19 10:43:28;;;;;;;10.50;6.20;;;;;;;6.98;81.92;100997.52;104598;1268;74358;-53
2023/04/19 10:47:23;;;;;;;9.40;6.20;;;;;;;6.89;82.43;100998.31;104666;1264;83509;-56
2023/04/19 10:51:37;;;;;;;9.50;6.60;;;;;;;6.81;82.84;100999.46;104233;1271;73726;-54
2023/04/19 10:59:09;;;;;;;;;;;;;;;;;;;;;
2023/04/19 11:06:17;;;;;;;;;;;;;;;;;;;;;
2023/04/19 11:10:14;;;;;;;11.30;6.10;;;;;;;6.10;83.29;101013.05;101697;1298;73211;-50
2023/04/19 11:20:36;;;;;;;6.70;4.90;;;;;;;5.83;83.41;101008.91;102492;1290;600283;-50
2023/04/19 11:24:02;;;;;;;6.20;4.30;;;;;;;5.69;83.67;101014.21;104796;1267;69825;-50
2023/04/19 11:27:11;;;;;;;8.80;4.60;;;;;;;5.61;83.79;101014.61;104724;1264;69910;-53
2023/04/19 11:30:25;;;;;;;7.10;5.20;;;;;;;5.55;84.16;101009.27;104817;1266;71522;-51
2023/04/19 11:33:30;;;;;;;6.20;4.20;;;;;;;5.52;84.53;101007.21;100761;1261;5478646;-54
2023/04/19 11:36:35;;;;;;;;;;;;;;;;;;;;;
2023/04/19 11:39:46;;;;;;;8.30;5.10;;;;;;;5.47;84.48;101003.78;104911;1261;69150;-57
2023/04/19 11:43:03;;;;;;;;;;;;;;;;;;;;;
2023/04/19 11:46:12;;;;;;;5.30;4.80;;;;;;;5.48;84.59;100991.80;104941;1261;72443;-51
2023/04/19 11:49:51;;;;;;;5.50;3.90;;;;;;;5.55;85.27;100991.59;104734;1267;83683;-55
2023/04/19 11:53:08;;;;;;;;;;;;;;;;;;;;;
2023/04/19 11:56:40;;;;;;;5.40;4.20;;;;;;;5.80;85.01;100988.63;104870;1261;69839;-50
2023/04/19 12:00:05;;;;;;;5.80;4.30;;;;;;;5.90;85.20;100985.27;105068;1266;69149;-50
2023/04/19 12:03:26;;;;;;;3.40;3.10;;;;;;;6.06;85.58;100984.30;104796;1261;73250;-51
2023/04/19 12:06:50;;;;;;;4.30;3.00;;;;;;;6.12;85.47;100980.75;104840;1266;83569;-53
2023/04/19 12:09:46;;;;;;;6.30;3.50;;;;;;;6.11;85.16;100975.05;104721;1261;73061;-51
2023/04/19 12:13:02;;;;;;;3.70;2.90;;;;;;;6.20;85.38;100974.44;104655;1267;69281;-55
2023/04/19 12:16:36;;;;;;;8.20;5.00;;;;;;;6.22;85.05;100970.42;104665;1265;69944;-50
2023/04/19 12:19:27;;;;;;;7.30;4.80;;;;;;;6.22;84.95;100970.42;104763;1264;73327;-51
2023/04/19 12:22:30;;;;;;;8.90;5.70;;;;;;;6.21;85.00;100971.82;104736;1266;82792;-49
2023/04/19 12:25:52;;;;;;;10.90;6.20;;;;;;;6.25;84.93;100970.40;104741;1261;72659;-53
2023/04/19 12:28:57;;;;;;;11.80;7.00;;;;;;;6.29;84.95;100971.58;104794;1262;70000;-52
2023/04/19 12:32:04;;;;;;;12.80;8.10;;;;;;;6.31;85.02;100971.38;104814;1261;69896;-53
2023/04/19 12:34:58;;;;;;;;;;;;;;;;;;;;;
2023/04/19 12:38:03;;;;;;;10.70;7.00;;;;;;;6.30;84.68;100968.77;104730;1267;83402;-52
2023/04/19 12:41:25;;;;;;;9.60;6.80;;;;;;;6.30;84.84;100968.27;104691;1261;75125;-51
2023/04/19 12:44:25;;;;;;;7.50;5.50;;;;;;;6.26;84.62;100965.19;104787;1264;69760;-53
2023/04/19 12:47:33;;;;;;;7.00;5.30;;;;;;;6.19;84.66;100960.91;104774;1266;69180;-50
2023/04/19 12:50:51;;;;;;;7.00;4.20;;;;;;;6.13;84.72;100959.58;104767;1261;72453;-52
2023/04/19 12:54:20;;;;;;;11.30;6.50;;;;;;;6.03;84.24;100956.90;104918;1261;83372;-51
2023/04/19 13:00:46;;;;;;;11.30;7.20;;;;;;;5.91;84.71;100958.88;104770;1261;70013;-51
2023/04/19 13:03:47;;;;;;;10.30;6.80;;;;;;;5.84;84.87;100959.11;104854;1261;69113;-53
2023/04/19 13:06:55;;;;;;;9.40;6.40;;;;;;;5.85;84.86;100955.64;104780;1261;73204;-50
2023/04/19 13:10:04;;;;;;;10.90;7.20;;;;;;;5.86;85.48;100958.05;104843;1266;84096;-51
2023/04/19 13:13:28;;;;;;;8.70;6.80;;;;;;;5.87;85.39;100956.66;104841;1267;72868;-51
2023/04/19 13:16:39;;;;;;;17.10;10.80;;;;;;;5.85;85.24;100952.87;104708;1264;69883;-55
2023/04/19 13:20:12;;;;;;;7.80;5.90;;;;;;;5.89;85.68;100947.80;104680;1264;69192;-51
2023/04/19 13:23:22;;;;;;;;;;;;;;;;;;;;;
2023/04/19 13:26:46;;;;;;;7.50;5.10;;;;;;;5.89;85.68;100951.79;104609;1266;83252;-50
2023/04/19 13:29:53;;;;;;;13.70;7.30;;;;;;;5.89;85.89;100950.58;104665;1266;73817;-54
2023/04/19 13:33:01;;;;;;;8.30;5.30;;;;;;;5.89;86.07;100943.80;104920;1264;69141;-52
2023/04/19 13:36:13;;;;;;;10.30;6.60;;;;;;;5.88;86.07;100944.52;104681;1266;70005;-54
2023/04/19 13:39:21;;;;;;;10.50;6.00;;;;;;;5.92;86.37;100941.02;104821;1266;71928;-53
2023/04/19 13:42:45;;;;;;;9.60;6.90;;;;;;;5.98;86.82;100941.33;104850;1266;82325;-50
2023/04/19 13:46:11;;;;;;;8.80;6.40;;;;;;;6.05;86.65;100940.56;104815;1264;73846;-54
2023/04/19 13:49:50;;;;;;;8.70;6.40;;;;;;;6.10;86.59;100938.63;104843;1264;69306;-51
2023/04/19 13:52:55;;;;;;;7.10;4.90;;;;;;;6.08;86.36;100933.60;104714;1264;69010;-51
2023/04/19 13:55:56;;;;;;;6.50;4.40;;;;;;;6.08;86.43;100934.29;104830;1267;72404;-52
2023/04/19 13:59:46;;;;;;;7.90;4.90;;;;;;;6.08;86.51;100933.26;104812;1266;83338;-57
2023/04/19 14:03:02;;;;;;;17.70;9.80;;;;;;;6.09;86.76;100934.13;105436;1260;73792;-51
2023/04/19 14:06:31;;;;;;;11.40;7.80;;;;;;;6.05;86.11;100933.80;105440;1257;69668;-52
2023/04/19 14:09:44;;;;;;;;;;;;;;;;;;;;;
2023/04/19 14:12:51;;;;;;;8.70;5.10;;;;;;;6.00;86.49;100931.24;105502;1254;73567;-56
2023/04/19 14:16:24;;;;;;;;;;;;;;;;;;;;;
2023/04/19 14:19:35;;;;;;;9.00;5.50;;;;;;;6.07;86.56;100929.45;104701;1263;72762;-51
2023/04/19 14:23:07;;;;;;;6.20;4.70;;;;;;;6.07;86.41;100927.02;104752;1265;69249;-52
2023/04/19 14:26:47;;;;;;;10.50;6.50;;;;;;;6.11;86.83;100924.73;104649;1265;69118;-55
2023/04/19 14:30:08;;;;;;;;;;;;;;;;;;;;;
2023/04/19 14:33:12;;;;;;;7.50;5.30;;;;;;;6.31;87.01;100923.29;104972;1266;82591;-55
2023/04/19 14:36:37;;;;;;;10.60;5.70;;;;;;;6.36;87.04;100922.35;104884;1263;73759;-51
2023/04/19 14:39:51;;;;;;;9.70;6.10;;;;;;;6.38;86.75;100924.25;104794;1265;69231;-53
2023/04/19 14:43:07;;;;;;;8.40;6.10;;;;;;;6.39;86.83;100923.39;104696;1264;69288;-51
2023/04/19 14:46:34;;;;;;;8.70;6.70;;;;;;;6.40;86.77;100924.23;104844;1265;73211;-57
2023/04/19 14:49:36;;;;;;;9.20;6.50;;;;;;;6.41;86.22;100924.40;104829;1263;83887;-52
2023/04/19 14:53:09;;;;;;;9.00;6.60;;;;;;;6.41;86.37;100926.48;104985;1261;71867;-58
2023/04/19 14:56:30;;;;;;;7.40;5.70;;;;;;;6.45;86.52;100926.26;105619;1261;69125;-51
2023/04/19 14:59:59;;;;;;;;;;;;;;;;;;;;;
2023/04/19 15:03:28;;;;;;;6.80;5.00;;;;;;;6.65;86.53;100918.89;105478;1260;71891;-54
2023/04/19 15:06:29;;;;;;;8.00;5.40;;;;;;;6.91;86.72;100916.66;105449;1257;83325;-61
2023/04/19 15:09:39;;;;;;;7.60;5.20;;;;;;;7.06;86.38;100914.01;105452;1257;73427;-54
2023/04/19 15:12:45;;;;;;;12.20;5.60;;;;;;;7.21;86.54;100912.23;105417;1262;69147;-51
2023/04/19 15:15:41;;;;;;;7.00;5.30;;;;;;;7.41;86.31;100910.18;105441;1257;69814;-54
2023/04/19 15:18:42;;;;;;;10.00;5.50;;;;;;;7.59;86.03;100910.41;105459;1255;73223;-54
2023/04/19 15:21:53;;;;;;;;;;;;;;;;;;;;;
2023/04/19 15:24:56;;;;;;;7.90;6.20;;;;;;;7.62;85.28;100910.70;105620;1257;73784;-55
2023/04/19 15:28:04;;;;;;;8.50;6.30;;;;;;;7.58;84.87;100908.33;105452;1257;69198;-55
2023/04/19 15:31:31;;;;;;;;;;;;;;;;;;;;;
2023/04/19 15:34:36;;;;;;;11.30;6.10;;;;;;;7.31;83.74;100904.60;105330;1260;73414;-51
2023/04/19 15:37:40;;;;;;;8.20;6.50;;;;;;;7.22;84.51;100907.01;105526;1254;82662;-56
2023/04/19 15:44:47;;;;;;;8.70;6.10;;;;;;;7.14;84.64;100908.84;105517;1258;69138;-54
2023/04/19 15:48:07;;;;;;;6.90;5.40;;;;;;;7.13;85.04;100911.84;105258;1258;69189;-54
2023/04/19 15:51:07;;;;;;;8.20;5.50;;;;;;;7.10;84.89;100912.73;105486;1257;73303;-54
2023/04/19 15:54:10;;;;;;;8.00;6.30;;;;;;;7.03;84.60;100913.70;105400;1254;82274;-56
2023/04/19 15:57:08;;;;;;;8.90;5.40;;;;;;;6.98;84.49;100910.46;105447;1256;73744;-55
2023/04/19 16:00:08;;;;;;;7.30;5.40;;;;;;;6.95;84.81;100910.86;105374;1257;69185;-54
2023/04/19 16:03:22;;;;;;;7.20;5.60;;;;;;;6.92;84.69;100910.02;105427;1257;69240;-53
2023/04/19 16:06:21;;;;;;;6.60;5.40;;;;;;;6.83;84.23;100914.50;105506;1257;72331;-58
2023/04/19 16:09:28;;;;;;;9.40;6.50;;;;;;;6.78;84.83;100913.16;105447;1257;83496;-54
2023/04/19 16:12:30;;;;;;;9.00;6.50;;;;;;;6.75;84.54;100914.44;105390;1255;73297;-51
2023/04/19 16:15:41;;;;;;;9.50;6.80;;;;;;;6.64;84.52;100914.57;105440;1257;69215;-54
2023/04/19 16:18:34;;;;;;;13.60;6.80;;;;;;;6.55;84.84;100918.85;105490;1257;69162;-54
2023/04/19 16:21:40;;;;;;;9.70;6.90;;;;;;;6.54;85.24;100920.08;105479;1257;72298;-50
2023/04/19 16:25:15;;;;;;;9.70;6.70;;;;;;;6.51;85.16;100913.51;105439;1257;82372;-56
2023/04/19 16:28:17;;;;;;;9.30;6.20;;;;;;;6.47;85.34;100908.36;105483;1257;72786;-55
2023/04/19 16:31:21;;;;;;;13.10;7.30;;;;;;;6.44;85.33;100915.16;105480;1257;69202;-57
2023/04/19 16:34:18;;;;;;;10.40;6.00;;;;;;;6.41;85.43;100915.73;105490;1255;69309;-51
2023/04/19 16:37:14;;;;;;;9.30;6.20;;;;;;;6.40;85.51;100917.45;105442;1254;73380;-54
2023/04/19 16:40:23;;;;;;;8.90;6.60;;;;;;;6.43;85.57;100917.95;105484;1256;83413;-56
2023/04/19 16:43:15;;;;;;;9.00;6.00;;;;;;;6.42;85.54;100917.61;105443;1254;73633;-54
2023/04/19 16:46:22;;;;;;;8.80;6.10;;;;;;;6.42;85.73;100919.86;105539;1254;69083;-52
2023/04/19 16:49:24;;;;;;;;;;;;;;;;;;;;;
2023/04/19 16:52:30;;;;;;;8.10;6.10;;;;;;;6.43;85.40;100924.91;105471;1257;74236;-52
2023/04/19 16:55:49;;;;;;;9.10;6.40;;;;;;;6.40;85.58;100925.10;105449;1257;83604;-53
2023/04/19 16:58:54;;;;;;;13.00;8.10;;;;;;;6.40;85.63;100925.45;105423;1254;73535;-53
2023/04/19 17:02:06;;;;;;;11.00;7.00;;;;;;;6.40;85.57;100925.29;105412;1256;69003;-52
2023/04/19 17:05:13;;;;;;;8.30;6.50;;;;;;;6.38;85.41;100926.52;105504;1259;69068;-51
2023/04/19 17:08:30;;;;;;;;;;;;;;;;;;;;;
2023/04/19 17:11:39;;;;;;;;;;;;;;;;;;;;;
2023/04/19 17:15:00;;;;;;;11.70;7.20;;;;;;;6.34;85.89;100928.82;105340;1257;73855;-51
2023/04/19 17:18:01;;;;;;;11.30;7.60;;;;;;;6.33;85.49;100930.40;105421;1257;69928;-53
2023/04/19 17:21:14;;;;;;;9.80;6.80;;;;;;;6.33;85.51;100933.70;105594;1266;69202;-52
2023/04/19 17:24:47;;;;;;;;;;;;;;;;;;;;;
2023/04/19 17:28:13;;;;;;;10.40;6.20;;;;;;;6.36;86.03;100942.67;105210;1260;83558;-53
2023/04/19 17:31:26;;;;;;;9.00;6.20;;;;;;;6.38;85.98;100945.44;105179;1257;73849;-56
2023/04/19 17:34:58;;;;;;;;;;;;;;;;;;;;;
2023/04/19 17:38:11;;;;;;;9.60;6.30;;;;;;;6.42;86.22;100948.33;105321;1260;69166;-52
2023/04/19 17:41:18;;;;;;;;;;;;;;;;;;;;;
2023/04/19 17:44:32;;;;;;;8.50;5.90;;;;;;;6.47;86.08;100951.76;105352;1261;83512;-55